메인 페이지
위성 영상 10일간 예보기후바다 날씨 사이클론 낙뢰 공항FAQ 뉴스레터 소개
날씨 : 유럽 아프리카 북아메리카 남아메리카 아시아 오스트레일리아-오세아니아 기타
언어 문의하기

칭다오, 중국

칭다오 류팅 국제공항

위도: 36-04N, 경도: 120-20E, 고도: 77m


METAR: ZSQD 010400Z 19003MPS 140V280 6000 NSC 28/16 Q0998 NOSIG
TAF: ZSQD 302123Z 0100/0124 32004MPS 5000 BR NSC TX29/0106Z TN16/20Z

시각: 12:46 (04:46 UTC)

현재 날씨관측

예보는 46분 전, 04:00시(UTC)에 발표되었습니다.
남동풍과 풍을 오가는 6kt
온도 28°C
습도 48%
기압 998 hPa
시정: 6000m

단위계 변경

예보

예보는 7 시간 23분 전, 21:23시(UTC)에 발표되었습니다.
예보 대상 시간: 01일 00시부터 01일 24시까지 (UTC)
북서8kt
시정: 5000m
박무
이 웹사이트상의 정보에 대하여 어떠한 법적 책임을 지지 않습니다 (면책 조항)
날씨 : 유럽 아프리카 북아메리카 남아메리카 아시아 오스트레일리아-오세아니아 기타
위성 영상 10일간 예보기후바다 날씨 사이클론 낙뢰 공항FAQ 언어 문의하기 뉴스레터 소개